createdAt,value
2018-01-02T00:00:29.852Z,7.4
2018-01-02T00:01:29.893Z,7.4
2018-01-02T00:02:29.757Z,7.41
2018-01-02T00:03:29.558Z,7.39
2018-01-02T00:04:30.372Z,7.36
2018-01-02T00:05:30.358Z,7.37
2018-01-02T00:06:30.283Z,7.39
2018-01-02T00:07:30.242Z,7.39
2018-01-02T00:08:30.219Z,7.39
2018-01-02T00:09:30.224Z,7.37
2018-01-02T00:10:30.256Z,7.36
2018-01-02T00:11:30.377Z,7.39
2018-01-02T00:12:30.326Z,7.37
2018-01-02T00:13:30.458Z,7.36
2018-01-02T00:14:30.362Z,7.34
2018-01-02T00:15:30.290Z,7.33
2018-01-02T00:16:30.255Z,7.34
2018-01-02T00:17:30.414Z,7.34
2018-01-02T00:18:30.276Z,7.34
2018-01-02T00:19:30.029Z,7.34
2018-01-02T00:20:29.989Z,7.31
2018-01-02T00:21:30.187Z,7.31
2018-01-02T00:22:30.254Z,7.31
2018-01-02T00:23:30.210Z,7.33
2018-01-02T00:24:30.271Z,7.33
2018-01-02T00:25:29.379Z,7.3
2018-01-02T00:26:29.320Z,7.31
2018-01-02T00:27:29.397Z,7.3
2018-01-02T00:28:29.801Z,7.27
2018-01-02T00:29:29.882Z,7.29
2018-01-02T00:30:29.686Z,7.26
2018-01-02T00:31:29.654Z,7.24
2018-01-02T00:32:29.594Z,7.24
2018-01-02T00:33:29.713Z,7.24
2018-01-02T00:34:29.690Z,7.23
2018-01-02T00:35:29.733Z,7.23
2018-01-02T00:36:29.674Z,7.22
2018-01-02T00:37:29.627Z,7.2
2018-01-02T00:38:29.632Z,7.2
2018-01-02T00:39:29.784Z,7.19
2018-01-02T00:40:29.689Z,7.19
2018-01-02T00:41:29.643Z,7.15
2018-01-02T00:42:29.554Z,7.18
2018-01-02T00:43:29.461Z,7.16
2018-01-02T00:44:29.428Z,7.19
2018-01-02T00:45:29.458Z,7.18
2018-01-02T00:46:29.386Z,7.16
2018-01-02T00:47:29.327Z,7.15
2018-01-02T00:48:29.362Z,7.13
2018-01-02T00:49:29.834Z,7.12
2018-01-02T00:50:29.799Z,7.09
2018-01-02T00:51:29.882Z,7.11
2018-01-02T00:52:30.040Z,7.09
2018-01-02T00:53:30.098Z,7.11
2018-01-02T00:54:30.087Z,7.08
2018-01-02T00:55:29.038Z,7.05
2018-01-02T00:56:29.920Z,7.06
2018-01-02T00:57:30.106Z,7.03
2018-01-02T00:58:29.174Z,7.03
2018-01-02T00:59:29.178Z,7.01
2018-01-02T01:00:29.279Z,7.01
2018-01-02T01:01:29.181Z,6.96
2018-01-02T01:02:29.309Z,6.96
2018-01-02T01:03:29.296Z,6.94
2018-01-02T01:04:28.424Z,6.94
2018-01-02T01:05:29.509Z,6.92
2018-01-02T01:06:29.622Z,6.91
2018-01-02T01:07:29.680Z,6.85
2018-01-02T01:08:29.902Z,6.85
2018-01-02T01:09:29.952Z,6.85
2018-01-02T01:10:29.983Z,6.83
2018-01-02T01:11:29.898Z,6.81
2018-01-02T01:12:30.032Z,6.77
2018-01-02T01:13:29.874Z,6.77
2018-01-02T01:14:29.733Z,6.77
2018-01-02T01:15:29.503Z,6.74
2018-01-02T01:16:29.546Z,6.73
2018-01-02T01:17:28.795Z,6.73
2018-01-02T01:18:29.696Z,6.68
2018-01-02T01:19:29.586Z,6.67
2018-01-02T01:20:29.397Z,6.67
2018-01-02T01:21:29.278Z,6.63
2018-01-02T01:22:29.122Z,6.63
2018-01-02T01:23:29.166Z,6.58
2018-01-02T01:24:29.276Z,6.56
2018-01-02T01:25:29.269Z,6.57
2018-01-02T01:26:30.031Z,6.53
2018-01-02T01:27:30.100Z,6.5
2018-01-02T01:28:30.096Z,6.47
2018-01-02T01:29:30.049Z,6.44
2018-01-02T01:30:29.833Z,6.46
2018-01-02T01:31:29.910Z,6.44
2018-01-02T01:32:29.794Z,6.37
2018-01-02T01:33:29.874Z,6.39
2018-01-02T01:34:30.079Z,6.39
2018-01-02T01:35:30.145Z,6.33
2018-01-02T01:36:30.039Z,6.32
2018-01-02T01:37:30.025Z,6.32
2018-01-02T01:38:29.923Z,6.29
2018-01-02T01:39:30.067Z,6.26
2018-01-02T01:40:30.108Z,6.25
2018-01-02T01:41:30.099Z,6.22
2018-01-02T01:42:29.991Z,6.23
2018-01-02T01:43:30.022Z,6.25
2018-01-02T01:44:30.067Z,6.22
2018-01-02T01:45:30.294Z,6.22
2018-01-02T01:46:30.288Z,6.23
2018-01-02T01:47:30.370Z,6.2
2018-01-02T01:48:30.246Z,6.18
2018-01-02T01:49:30.247Z,6.2
2018-01-02T01:50:30.191Z,6.16
2018-01-02T01:51:30.169Z,6.16
2018-01-02T01:52:30.109Z,6.16
2018-01-02T01:53:30.019Z,6.18
2018-01-02T01:54:29.897Z,6.19
2018-01-02T01:55:30.013Z,6.19
2018-01-02T01:56:29.106Z,6.2
2018-01-02T01:57:29.073Z,6.23
2018-01-02T01:58:29.108Z,6.25
2018-01-02T01:59:28.984Z,6.22
2018-01-02T02:00:30.021Z,6.25
2018-01-02T02:01:28.991Z,6.26
2018-01-02T02:02:29.766Z,6.29
2018-01-02T02:03:29.672Z,6.32
2018-01-02T02:04:29.585Z,6.33
2018-01-02T02:05:29.648Z,6.33
2018-01-02T02:06:29.627Z,6.36
2018-01-02T02:07:29.627Z,6.37
2018-01-02T02:08:29.568Z,6.37
2018-01-02T02:09:29.666Z,6.39
2018-01-02T02:10:29.563Z,6.39
2018-01-02T02:11:29.744Z,6.37
2018-01-02T02:12:29.588Z,6.43
2018-01-02T02:13:29.696Z,6.43
2018-01-02T02:14:29.732Z,6.44
2018-01-02T02:15:29.860Z,6.44
2018-01-02T02:16:29.989Z,6.46
2018-01-02T02:17:29.474Z,6.47
2018-01-02T02:18:29.604Z,6.46
2018-01-02T02:19:29.588Z,6.46
2018-01-02T02:20:29.637Z,6.44
2018-01-02T02:21:29.855Z,6.48
2018-01-02T02:22:29.918Z,6.47
2018-01-02T02:23:30.065Z,6.46
2018-01-02T02:24:29.193Z,6.48
2018-01-02T02:25:29.144Z,6.48
2018-01-02T02:26:29.105Z,6.48
2018-01-02T02:27:30.033Z,6.47
2018-01-02T02:28:30.142Z,6.47
2018-01-02T02:29:30.079Z,6.5
2018-01-02T02:30:30.261Z,6.47
2018-01-02T02:31:29.460Z,6.47
2018-01-02T02:32:29.365Z,6.47
2018-01-02T02:33:29.557Z,6.5
2018-01-02T02:34:29.600Z,6.5
2018-01-02T02:35:29.545Z,6.48
2018-01-02T02:36:29.472Z,6.47
2018-01-02T02:37:29.443Z,6.47
2018-01-02T02:38:29.346Z,6.5
2018-01-02T02:39:29.607Z,6.48
2018-01-02T02:40:29.544Z,6.46
2018-01-02T02:41:29.513Z,6.46
2018-01-02T02:42:29.379Z,6.43
2018-01-02T02:43:29.480Z,6.46
2018-01-02T02:44:29.568Z,6.44
2018-01-02T02:45:29.617Z,6.44
2018-01-02T02:46:29.571Z,6.4
2018-01-02T02:47:29.649Z,6.4
2018-01-02T02:48:29.632Z,6.4
2018-01-02T02:49:29.652Z,6.4
2018-01-02T02:50:29.832Z,6.41
2018-01-02T02:51:29.855Z,6.41
2018-01-02T02:52:29.737Z,6.43
2018-01-02T02:53:29.695Z,6.41
2018-01-02T02:54:29.711Z,6.43
2018-01-02T02:55:29.730Z,6.44
2018-01-02T02:56:29.946Z,6.41
2018-01-02T02:57:30.043Z,6.43
2018-01-02T02:58:30.020Z,6.44
2018-01-02T02:59:29.919Z,6.44
2018-01-02T03:00:29.752Z,6.44
2018-01-02T03:01:29.652Z,6.43
2018-01-02T03:02:30.530Z,6.41
2018-01-02T03:03:30.597Z,6.41
2018-01-02T03:04:30.573Z,6.41
2018-01-02T03:05:30.590Z,6.43
2018-01-02T03:06:30.430Z,6.41
2018-01-02T03:07:30.467Z,6.41
2018-01-02T03:08:30.490Z,6.44
2018-01-02T03:09:30.538Z,6.43
2018-01-02T03:10:30.384Z,6.43
2018-01-02T03:11:30.414Z,6.41
2018-01-02T03:12:30.456Z,6.4
2018-01-02T03:13:30.425Z,6.4
2018-01-02T03:14:30.230Z,6.43
2018-01-02T03:15:30.085Z,6.39
2018-01-02T03:16:30.022Z,6.43
2018-01-02T03:17:30.161Z,6.4
2018-01-02T03:18:30.101Z,6.41
2018-01-02T03:19:30.191Z,6.39
2018-01-02T03:20:30.194Z,6.4
2018-01-02T03:21:30.248Z,6.37
2018-01-02T03:22:30.019Z,6.41
2018-01-02T03:23:30.013Z,6.4
2018-01-02T03:24:29.990Z,6.4
2018-01-02T03:25:30.263Z,6.39
2018-01-02T03:26:30.477Z,6.37
2018-01-02T03:27:29.437Z,6.4
2018-01-02T03:28:29.341Z,6.39
2018-01-02T03:29:29.409Z,6.37
2018-01-02T03:30:29.330Z,6.37
2018-01-02T03:31:29.395Z,6.4
2018-01-02T03:32:29.212Z,6.39
2018-01-02T03:33:29.252Z,6.39
2018-01-02T03:34:29.240Z,6.4
2018-01-02T03:35:29.312Z,6.39
2018-01-02T03:36:29.504Z,6.37
2018-01-02T03:37:29.524Z,6.4
2018-01-02T03:38:29.542Z,6.4
2018-01-02T03:39:29.569Z,6.4
2018-01-02T03:40:29.619Z,6.4
2018-01-02T03:41:29.613Z,6.39
2018-01-02T03:42:29.745Z,6.4
2018-01-02T03:43:29.703Z,6.39
2018-01-02T03:44:29.742Z,6.4
2018-01-02T03:45:29.782Z,6.43
2018-01-02T03:46:29.752Z,6.44
2018-01-02T03:47:29.895Z,6.4
2018-01-02T03:48:29.822Z,6.4
2018-01-02T03:49:29.791Z,6.43
2018-01-02T03:50:29.697Z,6.41
2018-01-02T03:51:29.784Z,6.41
2018-01-02T03:52:29.896Z,6.41
2018-01-02T03:53:29.941Z,6.4
2018-01-02T03:54:29.885Z,6.4
2018-01-02T03:55:30.353Z,6.39
2018-01-02T03:56:29.193Z,6.4
2018-01-02T03:57:30.153Z,6.41
2018-01-02T03:58:29.208Z,6.41
2018-01-02T03:59:29.132Z,6.4
2018-01-02T04:00:29.053Z,6.4
2018-01-02T04:01:29.990Z,6.4
2018-01-02T04:02:29.021Z,6.4
2018-01-02T04:03:29.799Z,6.41
2018-01-02T04:04:29.771Z,6.39
2018-01-02T04:05:29.807Z,6.39
2018-01-02T04:06:29.873Z,6.4
2018-01-02T04:07:29.750Z,6.39
2018-01-02T04:08:29.609Z,6.36
2018-01-02T04:09:29.466Z,6.37
2018-01-02T04:10:29.598Z,6.36
2018-01-02T04:11:29.501Z,6.36
2018-01-02T04:12:29.491Z,6.37
2018-01-02T04:13:29.727Z,6.35
2018-01-02T04:14:29.900Z,6.33
2018-01-02T04:15:29.927Z,6.35
2018-01-02T04:16:30.033Z,6.32
2018-01-02T04:17:30.003Z,6.36
2018-01-02T04:18:29.083Z,6.33
2018-01-02T04:19:30.006Z,6.32
2018-01-02T04:21:33.213Z,6.32
2018-01-02T04:22:29.396Z,6.3
2018-01-02T04:23:29.409Z,6.26
2018-01-02T04:24:29.271Z,6.28
2018-01-02T04:25:29.264Z,6.28
2018-01-02T04:26:29.316Z,6.28
2018-01-02T04:27:29.515Z,6.25
2018-01-02T04:28:29.213Z,6.25
2018-01-02T04:29:29.128Z,6.23
2018-01-02T04:30:31.914Z,6.2
2018-01-02T04:31:29.868Z,6.22
2018-01-02T04:32:29.468Z,6.23
2018-01-02T04:33:29.605Z,6.19
2018-01-02T04:34:29.547Z,6.22
2018-01-02T04:35:30.125Z,6.16
2018-01-02T04:36:31.303Z,6.19
2018-01-02T04:37:29.382Z,6.18
2018-01-02T04:38:29.399Z,6.16
2018-01-02T04:39:29.480Z,6.18
2018-01-02T04:40:30.070Z,6.13
2018-01-02T04:41:30.051Z,6.16
2018-01-02T04:42:31.170Z,6.15
2018-01-02T04:43:30.929Z,6.16
2018-01-02T04:44:30.026Z,6.16
2018-01-02T04:45:29.474Z,6.13
2018-01-02T04:46:29.452Z,6.13
2018-01-02T04:47:29.480Z,6.13
2018-01-02T04:48:30.070Z,6.11
2018-01-02T04:49:29.743Z,6.09
2018-01-02T04:50:29.802Z,6.11
2018-01-02T04:51:29.535Z,6.12
2018-01-02T04:52:29.582Z,6.12
2018-01-02T04:53:29.766Z,6.11
2018-01-02T04:54:29.391Z,6.09
2018-01-02T04:55:29.992Z,6.08
2018-01-02T04:56:30.039Z,6.08
2018-01-02T04:57:30.117Z,6.09
2018-01-02T04:58:29.542Z,6.09
2018-01-02T04:59:29.641Z,6.06
2018-01-02T05:00:29.615Z,6.06
2018-01-02T05:01:31.320Z,6.08
2018-01-02T05:02:29.346Z,6.06
2018-01-02T05:03:29.979Z,6.06
2018-01-02T05:04:31.255Z,6.04
2018-01-02T05:05:31.668Z,6.06
2018-01-02T05:06:30.119Z,6.06
2018-01-02T05:07:29.739Z,6.08
2018-01-02T05:08:31.251Z,6.05
2018-01-02T05:09:30.115Z,6.05
2018-01-02T05:10:31.202Z,6.06
2018-01-02T05:11:31.117Z,6.06
2018-01-02T05:12:31.177Z,6.06
2018-01-02T05:13:30.032Z,6.05
2018-01-02T05:14:31.824Z,6.05
2018-01-02T05:15:29.852Z,6.05
2018-01-02T05:16:29.768Z,6.06
2018-01-02T05:17:30.032Z,6.06
2018-01-02T05:18:29.697Z,6.04
2018-01-02T05:19:29.767Z,6.06
2018-01-02T05:20:29.674Z,6.04
2018-01-02T05:21:29.697Z,6.06
2018-01-02T05:22:29.693Z,6.06
2018-01-02T05:23:29.644Z,6.04
2018-01-02T05:24:29.702Z,6.04
2018-01-02T05:25:29.910Z,6.02
2018-01-02T05:26:30.089Z,6.05
2018-01-02T05:27:29.750Z,6.04
2018-01-02T05:28:31.386Z,6.02
2018-01-02T05:29:31.699Z,6.02
2018-01-02T05:30:29.679Z,6.01
2018-01-02T05:31:29.693Z,6.04
2018-01-02T05:32:29.722Z,6.04
2018-01-02T05:33:29.982Z,6.02
2018-01-02T05:34:30.000Z,6.02
2018-01-02T05:35:29.871Z,6.02
2018-01-02T05:36:29.897Z,6.01
2018-01-02T05:37:29.720Z,6.02
2018-01-02T05:38:31.302Z,6.02
2018-01-02T05:39:31.616Z,6.04
2018-01-02T05:40:29.572Z,6.04
2018-01-02T05:41:29.521Z,6.04
2018-01-02T05:42:29.589Z,6
2018-01-02T05:43:29.699Z,6.04
2018-01-02T05:44:29.630Z,6.01
2018-01-02T05:45:31.690Z,6.01
2018-01-02T05:46:29.721Z,6.02
2018-01-02T05:47:29.206Z,6.01
2018-01-02T05:48:30.056Z,6
2018-01-02T05:49:30.055Z,6
2018-01-02T05:50:30.097Z,6
2018-01-02T05:51:29.388Z,5.94
2018-01-02T05:52:29.576Z,5.95
2018-01-02T05:53:32.042Z,5.94
2018-01-02T05:54:32.686Z,5.92
2018-01-02T05:55:31.171Z,5.91
2018-01-02T05:56:31.650Z,5.92
2018-01-02T05:57:29.685Z,5.92
2018-01-02T05:58:29.782Z,5.88
2018-01-02T05:59:28.884Z,5.9
2018-01-02T06:00:29.744Z,5.87
2018-01-02T06:01:28.926Z,5.87
2018-01-02T06:02:29.811Z,5.85
2018-01-02T06:03:29.795Z,5.87
2018-01-02T06:04:29.492Z,5.88
2018-01-02T06:05:29.644Z,5.9
2018-01-02T06:06:29.313Z,5.88
2018-01-02T06:07:29.322Z,5.88
2018-01-02T06:08:29.606Z,5.88
2018-01-02T06:09:29.483Z,5.87
2018-01-02T06:10:29.390Z,5.88
2018-01-02T06:11:29.861Z,5.87
2018-01-02T06:12:28.940Z,5.91
2018-01-02T06:13:29.904Z,5.9
2018-01-02T06:14:30.001Z,5.91
2018-01-02T06:15:29.274Z,5.91
2018-01-02T06:16:29.805Z,5.92
2018-01-02T06:17:29.372Z,5.95
2018-01-02T06:18:29.104Z,5.94
2018-01-02T06:19:29.211Z,5.95
2018-01-02T06:20:29.392Z,5.95
2018-01-02T06:21:29.421Z,5.97
2018-01-02T06:22:29.212Z,5.95
2018-01-02T06:23:29.277Z,5.98
2018-01-02T06:24:29.218Z,5.98
2018-01-02T06:25:29.213Z,6
2018-01-02T06:26:29.170Z,5.97
2018-01-02T06:27:29.067Z,5.98
2018-01-02T06:28:29.832Z,5.98
2018-01-02T06:29:29.445Z,6
2018-01-02T06:30:31.764Z,6
2018-01-02T06:31:29.815Z,5.98
2018-01-02T06:32:31.387Z,6
2018-01-02T06:33:31.539Z,5.98
2018-01-02T06:34:29.892Z,6
2018-01-02T06:35:29.960Z,5.97
2018-01-02T06:36:31.447Z,5.98
2018-01-02T06:37:31.705Z,6
2018-01-02T06:38:29.774Z,6
2018-01-02T06:39:31.367Z,5.97
2018-01-02T06:40:31.962Z,5.98
2018-01-02T06:41:31.292Z,5.98
2018-01-02T06:42:29.802Z,5.97
2018-01-02T06:43:29.644Z,5.98
2018-01-02T06:44:29.597Z,5.97
2018-01-02T06:45:31.906Z,5.98
2018-01-02T06:46:29.965Z,5.95
2018-01-02T06:47:29.634Z,5.95
2018-01-02T06:48:29.715Z,5.95
2018-01-02T06:49:31.669Z,5.95
2018-01-02T06:50:29.649Z,5.97
2018-01-02T06:51:30.853Z,5.94
2018-01-02T06:52:30.072Z,5.98
2018-01-02T06:53:31.211Z,5.94
2018-01-02T06:54:31.450Z,5.95
2018-01-02T06:55:31.714Z,5.97
2018-01-02T06:56:29.782Z,5.95
2018-01-02T06:57:31.471Z,5.95
2018-01-02T06:58:29.760Z,5.95
2018-01-02T06:59:29.768Z,5.95
2018-01-02T07:00:28.824Z,5.97
2018-01-02T07:01:29.742Z,5.98
2018-01-02T07:02:28.999Z,6
2018-01-02T07:03:29.040Z,5.98
2018-01-02T07:04:29.061Z,5.98
2018-01-02T07:05:29.451Z,6
2018-01-02T07:06:29.172Z,6
2018-01-02T07:07:29.190Z,6.01
2018-01-02T07:08:29.095Z,6.02
2018-01-02T07:09:29.305Z,6.04
2018-01-02T07:10:29.308Z,6.02
2018-01-02T07:11:29.120Z,6.05
2018-01-02T07:12:29.244Z,6.06
2018-01-02T07:13:29.293Z,6.06
2018-01-02T07:14:29.242Z,6.06
2018-01-02T07:15:29.718Z,6.08
2018-01-02T07:16:28.689Z,6.06
2018-01-02T07:17:29.475Z,6.09
2018-01-02T07:18:29.889Z,6.11
2018-01-02T07:19:29.333Z,6.09
2018-01-02T07:20:29.227Z,6.09
2018-01-02T07:21:29.450Z,6.09
2018-01-02T07:22:29.531Z,6.09
2018-01-02T07:23:29.307Z,6.11
2018-01-02T07:24:28.969Z,6.11
2018-01-02T07:25:29.231Z,6.12
2018-01-02T07:26:29.232Z,6.13
2018-01-02T07:27:28.830Z,6.12
2018-01-02T07:28:29.950Z,6.15
2018-01-02T07:29:29.797Z,6.13
2018-01-02T07:30:29.447Z,6.16
2018-01-02T07:31:30.096Z,6.13
2018-01-02T07:32:29.889Z,6.18
2018-01-02T07:33:29.793Z,6.16
2018-01-02T07:34:29.882Z,6.18
2018-01-02T07:35:29.963Z,6.16
2018-01-02T07:36:29.807Z,6.15
2018-01-02T07:37:30.017Z,6.2
2018-01-02T07:38:30.025Z,6.16
2018-01-02T07:39:29.993Z,6.18
2018-01-02T07:40:29.795Z,6.18
2018-01-02T07:41:29.556Z,6.18
2018-01-02T07:42:29.734Z,6.18
2018-01-02T07:43:29.806Z,6.18
2018-01-02T07:44:31.474Z,6.18
2018-01-02T07:45:29.776Z,6.18
2018-01-02T07:46:29.942Z,6.2
2018-01-02T07:47:29.668Z,6.2
2018-01-02T07:48:31.245Z,6.2
2018-01-02T07:49:29.458Z,6.22
2018-01-02T07:50:29.618Z,6.2
2018-01-02T07:51:29.762Z,6.2
2018-01-02T07:52:29.919Z,6.22
2018-01-02T07:53:31.925Z,6.2
2018-01-02T07:54:29.971Z,6.22
2018-01-02T07:55:30.170Z,6.19
2018-01-02T07:56:31.129Z,6.2
2018-01-02T07:57:30.082Z,6.23
2018-01-02T07:58:29.486Z,6.23
2018-01-02T07:59:29.462Z,6.23
2018-01-02T08:00:29.721Z,6.22
2018-01-02T08:01:31.471Z,6.23
2018-01-02T08:02:31.502Z,6.2
2018-01-02T08:03:31.379Z,6.23
2018-01-02T08:04:31.109Z,6.22
2018-01-02T08:05:30.033Z,6.23
2018-01-02T08:06:29.679Z,6.19
2018-01-02T08:07:31.639Z,6.23
2018-01-02T08:08:29.762Z,6.2
2018-01-02T08:09:31.227Z,6.22
2018-01-02T08:10:31.141Z,6.2
2018-01-02T08:11:30.050Z,6.2
2018-01-02T08:12:29.794Z,6.22
2018-01-02T08:13:29.867Z,6.22
2018-01-02T08:14:30.104Z,6.22
2018-01-02T08:15:29.826Z,6.22
2018-01-02T08:16:31.531Z,6.23
2018-01-02T08:17:31.955Z,6.22
2018-01-02T08:18:29.945Z,6.22
2018-01-02T08:19:29.929Z,6.2
2018-01-02T08:20:29.927Z,6.22
2018-01-02T08:21:29.902Z,6.23
2018-01-02T08:22:29.927Z,6.23
2018-01-02T08:23:30.025Z,6.22
2018-01-02T08:24:31.711Z,6.23
2018-01-02T08:25:29.799Z,6.23
2018-01-02T08:26:31.589Z,6.25
2018-01-02T08:27:29.894Z,6.25
2018-01-02T08:28:31.643Z,6.25
2018-01-02T08:29:31.544Z,6.25
2018-01-02T08:30:31.578Z,6.23
2018-01-02T08:31:29.728Z,6.26
2018-01-02T08:32:29.736Z,6.28
2018-01-02T08:33:29.740Z,6.26
2018-01-02T08:34:30.176Z,6.25
2018-01-02T08:35:30.056Z,6.28
2018-01-02T08:36:31.132Z,6.29
2018-01-02T08:37:31.249Z,6.28
2018-01-02T08:38:31.162Z,6.26
2018-01-02T08:39:31.292Z,6.26
2018-01-02T08:40:31.292Z,6.28
2018-01-02T08:41:31.017Z,6.26
2018-01-02T08:42:29.959Z,6.29
2018-01-02T08:43:31.162Z,6.28
2018-01-02T08:44:30.093Z,6.26
2018-01-02T08:45:31.496Z,6.28
2018-01-02T08:46:31.506Z,6.29
2018-01-02T08:47:29.647Z,6.29
2018-01-02T08:48:29.776Z,6.28
2018-01-02T08:49:30.486Z,6.28
2018-01-02T08:50:29.779Z,6.26
2018-01-02T08:51:31.771Z,6.3
2018-01-02T08:52:31.378Z,6.32
2018-01-02T08:53:31.410Z,6.29
2018-01-02T08:54:32.089Z,6.29
2018-01-02T08:55:31.212Z,6.3
2018-01-02T08:56:31.189Z,6.29
2018-01-02T08:57:30.863Z,6.32
2018-01-02T08:58:29.844Z,6.3
2018-01-02T08:59:29.790Z,6.29
2018-01-02T09:00:29.742Z,6.3
2018-01-02T09:01:29.012Z,6.3
2018-01-02T09:02:29.075Z,6.3
2018-01-02T09:03:29.099Z,6.29
2018-01-02T09:04:28.972Z,6.29
2018-01-02T09:05:29.478Z,6.29
2018-01-02T09:06:29.417Z,6.28
2018-01-02T09:07:29.331Z,6.29
2018-01-02T09:08:29.454Z,6.29
2018-01-02T09:09:29.795Z,6.29
2018-01-02T09:10:29.814Z,6.29
2018-01-02T09:11:29.333Z,6.29
2018-01-02T09:12:29.089Z,6.28
2018-01-02T09:13:29.053Z,6.28
2018-01-02T09:14:29.624Z,6.29
2018-01-02T09:15:29.686Z,6.3
2018-01-02T09:16:29.593Z,6.28
2018-01-02T09:17:29.553Z,6.33
2018-01-02T09:18:29.969Z,6.32
2018-01-02T09:19:29.214Z,6.3
2018-01-02T09:20:29.541Z,6.35
2018-01-02T09:21:29.690Z,6.36
2018-01-02T09:22:29.372Z,6.37
2018-01-02T09:23:29.153Z,6.36
2018-01-02T09:24:29.138Z,6.35
2018-01-02T09:25:28.976Z,6.35
2018-01-02T09:26:28.991Z,6.39
2018-01-02T09:27:29.870Z,6.39
2018-01-02T09:28:29.037Z,6.39
2018-01-02T09:29:29.032Z,6.4
2018-01-02T09:30:29.174Z,6.4
2018-01-02T09:31:29.349Z,6.41
2018-01-02T09:32:29.121Z,6.43
2018-01-02T09:33:29.936Z,6.41
2018-01-02T09:34:29.669Z,6.44
2018-01-02T09:35:29.406Z,6.46
2018-01-02T09:36:29.428Z,6.46
2018-01-02T09:37:29.636Z,6.48
2018-01-02T09:38:29.976Z,6.5
2018-01-02T09:39:29.786Z,6.5
2018-01-02T09:40:29.478Z,6.5
2018-01-02T09:41:30.163Z,6.5
2018-01-02T09:42:29.836Z,6.53
2018-01-02T09:43:30.222Z,6.54
2018-01-02T09:44:29.433Z,6.56
2018-01-02T09:45:29.430Z,6.57
2018-01-02T09:46:29.490Z,6.54
2018-01-02T09:47:29.681Z,6.54
2018-01-02T09:48:29.887Z,6.56
2018-01-02T09:49:29.944Z,6.53
2018-01-02T09:50:29.861Z,6.53
2018-01-02T09:51:29.478Z,6.56
2018-01-02T09:52:29.752Z,6.54
2018-01-02T09:53:30.082Z,6.53
2018-01-02T09:54:29.288Z,6.54
2018-01-02T09:55:31.392Z,6.54
2018-01-02T09:56:29.457Z,6.54
2018-01-02T09:57:29.507Z,6.54
2018-01-02T09:58:29.713Z,6.54
2018-01-02T09:59:29.669Z,6.53
2018-01-02T10:00:29.404Z,6.53
2018-01-02T10:01:30.117Z,6.56
2018-01-02T10:02:29.064Z,6.56
2018-01-02T10:03:30.107Z,6.57
2018-01-02T10:04:33.847Z,6.56
2018-01-02T10:05:29.925Z,6.56
2018-01-02T10:06:31.260Z,6.54
2018-01-02T10:07:32.282Z,6.54
2018-01-02T10:08:32.502Z,6.54
2018-01-02T10:11:34.367Z,6.51
2018-01-02T10:12:30.654Z,6.53
2018-01-02T10:13:32.029Z,6.56
2018-01-02T10:14:31.200Z,6.54
2018-01-02T10:15:31.508Z,6.56
2018-01-02T10:16:30.698Z,6.54
2018-01-02T10:17:30.848Z,6.57
2018-01-02T10:18:30.903Z,6.58
2018-01-02T10:19:31.338Z,6.57
2018-01-02T10:20:29.325Z,6.57
2018-01-02T10:21:29.513Z,6.57
2018-01-02T10:22:31.092Z,6.6
2018-01-02T10:23:29.269Z,6.61
2018-01-02T10:24:30.953Z,6.61
2018-01-02T10:25:31.020Z,6.6
2018-01-02T10:26:30.936Z,6.61
2018-01-02T10:27:31.774Z,6.65
2018-01-02T10:28:31.257Z,6.63
2018-01-02T10:29:29.300Z,6.67
2018-01-02T10:30:29.320Z,6.67
2018-01-02T10:31:31.247Z,6.68
2018-01-02T10:32:34.813Z,6.71
2018-01-02T10:33:30.949Z,6.74
2018-01-02T10:34:30.841Z,6.75
2018-01-02T10:35:31.250Z,6.83
2018-01-02T10:36:31.886Z,6.84
2018-01-02T10:37:31.170Z,6.85
2018-01-02T10:38:31.187Z,6.91
2018-01-02T10:39:31.485Z,6.96
2018-01-02T10:40:31.091Z,7.01
2018-01-02T10:41:31.181Z,7.02
2018-01-02T10:42:31.627Z,7.08
2018-01-02T10:43:30.795Z,7.09
2018-01-02T10:44:30.635Z,7.11
2018-01-02T10:45:29.441Z,7.12
2018-01-02T10:46:29.430Z,7.16
2018-01-02T10:47:31.241Z,7.19
2018-01-02T10:48:31.277Z,7.19
2018-01-02T10:49:31.820Z,7.2
2018-01-02T10:50:31.080Z,7.22
2018-01-02T10:51:30.739Z,7.24
2018-01-02T10:52:31.062Z,7.23
2018-01-02T10:53:31.269Z,7.23
2018-01-02T10:54:31.433Z,7.26
2018-01-02T10:55:31.518Z,7.22
2018-01-02T10:56:29.412Z,7.19
2018-01-02T10:57:30.772Z,7.19
2018-01-02T10:58:31.050Z,7.18
2018-01-02T10:59:32.790Z,7.16
2018-01-02T11:00:31.424Z,7.13
2018-01-02T11:01:29.504Z,7.12
2018-01-02T11:02:31.105Z,7.09
2018-01-02T11:03:29.428Z,7.09
2018-01-02T11:04:29.380Z,7.08
2018-01-02T11:05:30.652Z,7.06
2018-01-02T11:06:30.812Z,7.08
2018-01-02T11:07:31.034Z,7.12
2018-01-02T11:08:31.864Z,7.09
2018-01-02T11:09:30.604Z,7.12
2018-01-02T11:10:30.744Z,7.12
2018-01-02T11:11:31.100Z,7.16
2018-01-02T11:12:29.215Z,7.16
2018-01-02T11:13:29.245Z,7.2
2018-01-02T11:14:29.492Z,7.2
2018-01-02T11:15:29.575Z,7.22
2018-01-02T11:16:30.971Z,7.23
2018-01-02T11:17:29.020Z,7.24
2018-01-02T11:18:29.260Z,7.24
2018-01-02T11:19:29.344Z,7.24
2018-01-02T11:20:29.494Z,7.22
2018-01-02T11:21:30.601Z,7.23
2018-01-02T11:22:31.413Z,7.23
2018-01-02T11:23:30.657Z,7.26
2018-01-02T11:24:30.826Z,7.22
2018-01-02T11:25:30.942Z,7.22
2018-01-02T11:26:30.517Z,7.24
2018-01-02T11:27:30.894Z,7.22
2018-01-02T11:28:30.724Z,7.22
2018-01-02T11:29:30.899Z,7.18
2018-01-02T11:30:31.289Z,7.2
2018-01-02T11:31:30.826Z,7.19
2018-01-02T11:32:30.967Z,7.16
2018-01-02T11:33:29.238Z,7.16
2018-01-02T11:34:29.535Z,7.16
2018-01-02T11:35:29.384Z,7.15
2018-01-02T11:36:29.452Z,7.16
2018-01-02T11:37:30.850Z,7.16
2018-01-02T11:38:29.497Z,7.16
2018-01-02T11:39:30.709Z,7.18
2018-01-02T11:40:30.877Z,7.19
2018-01-02T11:41:31.003Z,7.2
2018-01-02T11:42:31.286Z,7.22
2018-01-02T11:43:29.242Z,7.23
2018-01-02T11:44:29.227Z,7.26
2018-01-02T11:45:29.449Z,7.3
2018-01-02T11:46:29.553Z,7.33
2018-01-02T11:47:30.943Z,7.36
2018-01-02T11:48:31.305Z,7.37
2018-01-02T11:49:29.143Z,7.39
2018-01-02T11:50:29.242Z,7.4
2018-01-02T11:51:31.189Z,7.43
2018-01-02T11:52:29.395Z,7.46
2018-01-02T11:53:29.566Z,7.41
2018-01-02T11:54:30.711Z,7.41
2018-01-02T11:55:31.000Z,7.4
2018-01-02T11:56:29.168Z,7.37
2018-01-02T11:57:31.225Z,7.39
2018-01-02T11:58:29.198Z,7.36
2018-01-02T11:59:31.091Z,7.36
2018-01-02T12:00:29.522Z,7.34
2018-01-02T12:01:30.778Z,7.34
2018-01-02T12:02:31.094Z,7.33
2018-01-02T12:03:31.776Z,7.3
2018-01-02T12:04:31.104Z,7.3
2018-01-02T12:05:31.241Z,7.31
2018-01-02T12:06:29.480Z,7.3
2018-01-02T12:07:30.755Z,7.3
2018-01-02T12:08:30.578Z,7.33
2018-01-02T12:09:29.450Z,7.37
2018-01-02T12:10:31.013Z,7.34
2018-01-02T12:11:31.576Z,7.34
2018-01-02T12:12:30.770Z,7.37
2018-01-02T12:13:31.176Z,7.39
2018-01-02T12:14:29.420Z,7.36
2018-01-02T12:15:29.402Z,7.36
2018-01-02T12:16:30.614Z,7.33
2018-01-02T12:17:30.834Z,7.36
2018-01-02T12:18:31.123Z,7.33
2018-01-02T12:19:30.962Z,7.33
2018-01-02T12:20:31.093Z,7.33
2018-01-02T12:21:31.203Z,7.31
2018-01-02T12:22:29.199Z,7.3
2018-01-02T12:23:31.044Z,7.29
2018-01-02T12:24:31.822Z,7.27
2018-01-02T12:25:31.068Z,7.27
2018-01-02T12:26:31.315Z,7.26
2018-01-02T12:27:29.419Z,7.26
2018-01-02T12:28:30.610Z,7.26
2018-01-02T12:29:30.872Z,7.24
2018-01-02T12:30:30.798Z,7.26
2018-01-02T12:31:31.205Z,7.22
2018-01-02T12:32:30.918Z,7.22
2018-01-02T12:33:29.503Z,7.2
2018-01-02T12:34:30.699Z,7.2
2018-01-02T12:35:30.520Z,7.18
2018-01-02T12:36:30.894Z,7.19
2018-01-02T12:37:30.901Z,7.16
2018-01-02T12:38:30.690Z,7.16
2018-01-02T12:39:32.040Z,7.15
2018-01-02T12:40:31.153Z,7.15
2018-01-02T12:41:30.808Z,7.16
2018-01-02T12:42:31.185Z,7.15
2018-01-02T12:43:31.353Z,7.16
2018-01-02T12:44:31.862Z,7.19
2018-01-02T12:45:31.539Z,7.19
2018-01-02T12:46:31.284Z,7.2
2018-01-02T12:47:31.726Z,7.23
2018-01-02T12:48:30.505Z,7.24
2018-01-02T12:49:31.774Z,7.27
2018-01-02T12:50:31.136Z,7.29
2018-01-02T12:51:31.397Z,7.31
2018-01-02T12:52:31.720Z,7.31
2018-01-02T12:53:31.330Z,7.34
2018-01-02T12:54:31.690Z,7.31
2018-01-02T12:55:31.028Z,7.33
2018-01-02T12:56:29.066Z,7.31
2018-01-02T12:57:31.580Z,7.31
2018-01-02T12:58:31.382Z,7.31
2018-01-02T12:59:31.453Z,7.33
2018-01-02T13:00:31.500Z,7.31
2018-01-02T13:01:31.465Z,7.3
2018-01-02T13:02:31.557Z,7.33
2018-01-02T13:03:32.115Z,7.33
2018-01-02T13:04:31.638Z,7.33
2018-01-02T13:05:30.957Z,7.33
2018-01-02T13:06:31.038Z,7.34
2018-01-02T13:07:31.034Z,7.34
2018-01-02T13:08:31.592Z,7.36
2018-01-02T13:09:29.533Z,7.34
2018-01-02T13:10:31.044Z,7.36
2018-01-02T13:11:31.195Z,7.36
2018-01-02T13:12:32.692Z,7.31
2018-01-02T13:13:30.672Z,7.33
2018-01-02T13:14:31.205Z,7.34
2018-01-02T13:15:32.899Z,7.34
2018-01-02T13:16:30.833Z,7.33
2018-01-02T13:17:30.816Z,7.33
2018-01-02T13:18:31.180Z,7.34
2018-01-02T13:19:31.363Z,7.33
2018-01-02T13:20:31.552Z,7.33
2018-01-02T13:21:31.036Z,7.33
2018-01-02T13:22:31.352Z,7.34
2018-01-02T13:23:31.498Z,7.34
2018-01-02T13:24:32.702Z,7.34
2018-01-02T13:25:31.000Z,7.33
2018-01-02T13:26:30.595Z,7.33